sensor_id;sensor_type;location;lat;lon;timestamp;temperature;humidity
20288;DHT22;10303;51.960;8.372;2023-02-21T00:02:39;9.60;99.90
20288;DHT22;10303;51.960;8.372;2023-02-21T00:05:24;10.00;99.90
20288;DHT22;10303;51.960;8.372;2023-02-21T00:08:08;10.60;99.90
20288;DHT22;10303;51.960;8.372;2023-02-21T00:10:52;10.40;99.90
20288;DHT22;10303;51.960;8.372;2023-02-21T00:13:38;9.80;99.90
20288;DHT22;10303;51.960;8.372;2023-02-21T00:16:23;9.70;99.90
20288;DHT22;10303;51.960;8.372;2023-02-21T00:19:08;10.20;99.90
20288;DHT22;10303;51.960;8.372;2023-02-21T00:21:52;10.50;99.90
20288;DHT22;10303;51.960;8.372;2023-02-21T00:24:37;10.00;99.90
20288;DHT22;10303;51.960;8.372;2023-02-21T00:27:24;10.30;99.90
20288;DHT22;10303;51.960;8.372;2023-02-21T00:30:09;10.40;99.90
20288;DHT22;10303;51.960;8.372;2023-02-21T00:32:56;10.30;99.90
20288;DHT22;10303;51.960;8.372;2023-02-21T00:35:41;10.10;99.90
20288;DHT22;10303;51.960;8.372;2023-02-21T00:38:25;10.30;99.90
20288;DHT22;10303;51.960;8.372;2023-02-21T00:41:09;10.40;99.90
20288;DHT22;10303;51.960;8.372;2023-02-21T00:43:54;10.40;99.90
20288;DHT22;10303;51.960;8.372;2023-02-21T00:46:39;10.20;99.90
20288;DHT22;10303;51.960;8.372;2023-02-21T00:49:24;10.20;99.90
20288;DHT22;10303;51.960;8.372;2023-02-21T00:52:09;10.80;99.90
20288;DHT22;10303;51.960;8.372;2023-02-21T00:54:53;10.50;99.90
20288;DHT22;10303;51.960;8.372;2023-02-21T00:57:37;10.50;99.90
20288;DHT22;10303;51.960;8.372;2023-02-21T01:00:23;10.60;99.90
20288;DHT22;10303;51.960;8.372;2023-02-21T01:03:09;10.50;99.90
20288;DHT22;10303;51.960;8.372;2023-02-21T01:05:55;10.80;99.90
20288;DHT22;10303;51.960;8.372;2023-02-21T01:08:44;11.10;99.90
20288;DHT22;10303;51.960;8.372;2023-02-21T01:11:31;10.90;99.90
20288;DHT22;10303;51.960;8.372;2023-02-21T01:14:16;11.50;99.90
20288;DHT22;10303;51.960;8.372;2023-02-21T01:17:01;11.10;99.90
20288;DHT22;10303;51.960;8.372;2023-02-21T01:19:45;10.70;99.90
20288;DHT22;10303;51.960;8.372;2023-02-21T01:22:32;10.20;99.90
20288;DHT22;10303;51.960;8.372;2023-02-21T01:25:19;10.70;99.90
20288;DHT22;10303;51.960;8.372;2023-02-21T01:28:04;10.00;99.90
20288;DHT22;10303;51.960;8.372;2023-02-21T01:30:48;9.70;99.90
20288;DHT22;10303;51.960;8.372;2023-02-21T01:33:40;9.80;99.90
20288;DHT22;10303;51.960;8.372;2023-02-21T01:36:26;10.30;99.90
20288;DHT22;10303;51.960;8.372;2023-02-21T01:39:11;10.00;99.90
20288;DHT22;10303;51.960;8.372;2023-02-21T01:41:56;10.20;99.90
20288;DHT22;10303;51.960;8.372;2023-02-21T01:44:43;10.10;99.90
20288;DHT22;10303;51.960;8.372;2023-02-21T01:47:31;10.20;99.90
20288;DHT22;10303;51.960;8.372;2023-02-21T01:50:24;10.30;99.90
20288;DHT22;10303;51.960;8.372;2023-02-21T01:53:18;10.10;99.90
20288;DHT22;10303;51.960;8.372;2023-02-21T01:56:06;10.20;99.90
20288;DHT22;10303;51.960;8.372;2023-02-21T01:58:54;10.20;99.90
20288;DHT22;10303;51.960;8.372;2023-02-21T02:05:04;10.30;99.90
20288;DHT22;10303;51.960;8.372;2023-02-21T02:07:53;9.80;99.90
20288;DHT22;10303;51.960;8.372;2023-02-21T02:10:40;10.40;99.90
20288;DHT22;10303;51.960;8.372;2023-02-21T02:13:35;10.10;99.90
20288;DHT22;10303;51.960;8.372;2023-02-21T02:34:29;10.30;99.90
20288;DHT22;10303;51.960;8.372;2023-02-21T02:40:15;10.20;99.90
20288;DHT22;10303;51.960;8.372;2023-02-21T02:45:47;10.20;99.90
20288;DHT22;10303;51.960;8.372;2023-02-21T02:48:22;10.40;99.90
20288;DHT22;10303;51.960;8.372;2023-02-21T02:50:54;10.40;99.90
20288;DHT22;10303;51.960;8.372;2023-02-21T02:53:25;10.60;99.90
20288;DHT22;10303;51.960;8.372;2023-02-21T02:55:59;10.70;99.90
20288;DHT22;10303;51.960;8.372;2023-02-21T02:58:34;10.60;99.90
20288;DHT22;10303;51.960;8.372;2023-02-21T03:08:10;10.30;99.90
20288;DHT22;10303;51.960;8.372;2023-02-21T03:13:33;11.30;99.90
20288;DHT22;10303;51.960;8.372;2023-02-21T03:16:23;10.50;99.90
20288;DHT22;10303;51.960;8.372;2023-02-21T03:21:42;10.30;99.90
20288;DHT22;10303;51.960;8.372;2023-02-21T03:24:14;10.20;99.90
20288;DHT22;10303;51.960;8.372;2023-02-21T03:26:45;10.50;99.90
20288;DHT22;10303;51.960;8.372;2023-02-21T03:29:37;10.70;99.90
20288;DHT22;10303;51.960;8.372;2023-02-21T03:35:02;10.50;99.90
20288;DHT22;10303;51.960;8.372;2023-02-21T03:37:39;10.70;99.90
20288;DHT22;10303;51.960;8.372;2023-02-21T03:42:46;10.80;99.90
20288;DHT22;10303;51.960;8.372;2023-02-21T03:45:14;10.70;99.90
20288;DHT22;10303;51.960;8.372;2023-02-21T03:47:42;10.70;99.90
20288;DHT22;10303;51.960;8.372;2023-02-21T03:50:18;10.90;99.90
20288;DHT22;10303;51.960;8.372;2023-02-21T03:52:45;11.10;99.90
20288;DHT22;10303;51.960;8.372;2023-02-21T03:55:12;11.00;99.90
20288;DHT22;10303;51.960;8.372;2023-02-21T03:57:38;11.00;99.90
20288;DHT22;10303;51.960;8.372;2023-02-21T04:00:04;11.70;99.90
20288;DHT22;10303;51.960;8.372;2023-02-21T04:02:41;11.10;99.90
20288;DHT22;10303;51.960;8.372;2023-02-21T04:05:11;10.50;99.90
20288;DHT22;10303;51.960;8.372;2023-02-21T04:07:37;10.60;99.90
20288;DHT22;10303;51.960;8.372;2023-02-21T04:10:03;11.00;99.90
20288;DHT22;10303;51.960;8.372;2023-02-21T04:12:37;11.00;99.90
20288;DHT22;10303;51.960;8.372;2023-02-21T04:15:04;11.10;99.90
20288;DHT22;10303;51.960;8.372;2023-02-21T04:17:30;10.80;99.90
20288;DHT22;10303;51.960;8.372;2023-02-21T04:19:57;11.00;99.90
20288;DHT22;10303;51.960;8.372;2023-02-21T04:22:23;10.90;99.90
20288;DHT22;10303;51.960;8.372;2023-02-21T04:24:49;10.80;99.90
20288;DHT22;10303;51.960;8.372;2023-02-21T04:27:17;10.70;99.90
20288;DHT22;10303;51.960;8.372;2023-02-21T04:29:49;11.00;99.90
20288;DHT22;10303;51.960;8.372;2023-02-21T04:32:15;11.00;99.90
20288;DHT22;10303;51.960;8.372;2023-02-21T04:34:41;10.70;99.90
20288;DHT22;10303;51.960;8.372;2023-02-21T04:37:08;10.70;99.90
20288;DHT22;10303;51.960;8.372;2023-02-21T04:39:34;10.90;99.90
20288;DHT22;10303;51.960;8.372;2023-02-21T04:42:00;10.80;99.90
20288;DHT22;10303;51.960;8.372;2023-02-21T04:44:28;11.10;99.90
20288;DHT22;10303;51.960;8.372;2023-02-21T04:46:54;11.00;99.90
20288;DHT22;10303;51.960;8.372;2023-02-21T04:49:20;11.40;99.90
20288;DHT22;10303;51.960;8.372;2023-02-21T04:51:45;11.00;99.90
20288;DHT22;10303;51.960;8.372;2023-02-21T04:54:11;11.10;99.90
20288;DHT22;10303;51.960;8.372;2023-02-21T04:56:37;11.10;99.90
20288;DHT22;10303;51.960;8.372;2023-02-21T04:59:04;11.00;99.90
20288;DHT22;10303;51.960;8.372;2023-02-21T05:01:30;11.10;99.90
20288;DHT22;10303;51.960;8.372;2023-02-21T05:03:57;11.20;99.90
20288;DHT22;10303;51.960;8.372;2023-02-21T05:06:26;11.20;99.90
20288;DHT22;10303;51.960;8.372;2023-02-21T05:08:53;11.10;99.90
20288;DHT22;10303;51.960;8.372;2023-02-21T05:11:20;11.00;99.90
20288;DHT22;10303;51.960;8.372;2023-02-21T05:13:47;11.00;99.90
20288;DHT22;10303;51.960;8.372;2023-02-21T05:16:13;11.20;99.90
20288;DHT22;10303;51.960;8.372;2023-02-21T05:18:44;11.10;99.90
20288;DHT22;10303;51.960;8.372;2023-02-21T05:21:11;10.80;99.90
20288;DHT22;10303;51.960;8.372;2023-02-21T05:23:38;10.90;99.90
20288;DHT22;10303;51.960;8.372;2023-02-21T05:26:11;10.90;99.90
20288;DHT22;10303;51.960;8.372;2023-02-21T05:28:40;11.20;99.90
20288;DHT22;10303;51.960;8.372;2023-02-21T05:31:06;10.80;99.90
20288;DHT22;10303;51.960;8.372;2023-02-21T05:33:32;10.70;99.90
20288;DHT22;10303;51.960;8.372;2023-02-21T05:35:59;11.30;99.90
20288;DHT22;10303;51.960;8.372;2023-02-21T05:38:26;10.90;99.90
20288;DHT22;10303;51.960;8.372;2023-02-21T05:40:53;11.20;99.90
20288;DHT22;10303;51.960;8.372;2023-02-21T05:43:19;10.50;99.90
20288;DHT22;10303;51.960;8.372;2023-02-21T05:45:44;10.60;99.90
20288;DHT22;10303;51.960;8.372;2023-02-21T05:48:10;10.80;99.90
20288;DHT22;10303;51.960;8.372;2023-02-21T05:50:36;10.80;99.90
20288;DHT22;10303;51.960;8.372;2023-02-21T05:53:04;11.10;99.90
20288;DHT22;10303;51.960;8.372;2023-02-21T05:55:30;10.90;99.90
20288;DHT22;10303;51.960;8.372;2023-02-21T05:57:56;10.80;99.90
20288;DHT22;10303;51.960;8.372;2023-02-21T06:00:27;10.80;99.90
20288;DHT22;10303;51.960;8.372;2023-02-21T06:02:54;10.70;99.90
20288;DHT22;10303;51.960;8.372;2023-02-21T06:05:22;10.90;99.90
20288;DHT22;10303;51.960;8.372;2023-02-21T06:07:48;10.60;99.90
20288;DHT22;10303;51.960;8.372;2023-02-21T06:10:15;10.70;99.90
20288;DHT22;10303;51.960;8.372;2023-02-21T06:12:42;10.60;99.90
20288;DHT22;10303;51.960;8.372;2023-02-21T06:15:08;10.60;99.90
20288;DHT22;10303;51.960;8.372;2023-02-21T06:17:39;10.50;99.90
20288;DHT22;10303;51.960;8.372;2023-02-21T06:20:06;10.50;99.90
20288;DHT22;10303;51.960;8.372;2023-02-21T06:22:35;10.50;99.90
20288;DHT22;10303;51.960;8.372;2023-02-21T06:25:00;10.70;99.90
20288;DHT22;10303;51.960;8.372;2023-02-21T06:27:27;10.40;99.90
20288;DHT22;10303;51.960;8.372;2023-02-21T06:29:53;10.20;99.90
20288;DHT22;10303;51.960;8.372;2023-02-21T06:32:19;10.80;99.90
20288;DHT22;10303;51.960;8.372;2023-02-21T06:34:45;10.50;99.90
20288;DHT22;10303;51.960;8.372;2023-02-21T06:37:11;10.10;99.90
20288;DHT22;10303;51.960;8.372;2023-02-21T06:39:38;10.70;99.90
20288;DHT22;10303;51.960;8.372;2023-02-21T06:42:04;10.40;99.90
20288;DHT22;10303;51.960;8.372;2023-02-21T06:44:31;10.20;99.90
20288;DHT22;10303;51.960;8.372;2023-02-21T06:46:57;10.40;99.90
20288;DHT22;10303;51.960;8.372;2023-02-21T06:49:22;10.90;99.90
20288;DHT22;10303;51.960;8.372;2023-02-21T06:51:48;10.80;99.90
20288;DHT22;10303;51.960;8.372;2023-02-21T06:54:15;10.30;99.90
20288;DHT22;10303;51.960;8.372;2023-02-21T06:56:41;10.40;99.90
20288;DHT22;10303;51.960;8.372;2023-02-21T06:59:09;11.00;99.90
20288;DHT22;10303;51.960;8.372;2023-02-21T07:01:35;10.30;99.90
20288;DHT22;10303;51.960;8.372;2023-02-21T07:04:01;10.50;99.90
20288;DHT22;10303;51.960;8.372;2023-02-21T07:06:27;10.50;99.90
20288;DHT22;10303;51.960;8.372;2023-02-21T07:08:53;10.60;99.90
20288;DHT22;10303;51.960;8.372;2023-02-21T07:11:19;10.70;99.90
20288;DHT22;10303;51.960;8.372;2023-02-21T07:13:52;10.70;99.90
20288;DHT22;10303;51.960;8.372;2023-02-21T07:16:21;10.80;99.90
20288;DHT22;10303;51.960;8.372;2023-02-21T07:18:47;10.90;99.90
20288;DHT22;10303;51.960;8.372;2023-02-21T07:21:14;10.80;99.90
20288;DHT22;10303;51.960;8.372;2023-02-21T07:23:45;10.50;99.90
20288;DHT22;10303;51.960;8.372;2023-02-21T07:26:12;10.40;99.90
20288;DHT22;10303;51.960;8.372;2023-02-21T07:28:39;10.70;99.90
20288;DHT22;10303;51.960;8.372;2023-02-21T07:31:05;10.80;99.90
20288;DHT22;10303;51.960;8.372;2023-02-21T07:33:32;10.70;99.90
20288;DHT22;10303;51.960;8.372;2023-02-21T07:35:58;10.80;99.90
20288;DHT22;10303;51.960;8.372;2023-02-21T07:38:26;10.80;99.90
20288;DHT22;10303;51.960;8.372;2023-02-21T07:40:54;10.90;99.90
20288;DHT22;10303;51.960;8.372;2023-02-21T07:43:24;11.10;99.90
20288;DHT22;10303;51.960;8.372;2023-02-21T07:45:51;11.00;99.90
20288;DHT22;10303;51.960;8.372;2023-02-21T07:48:17;11.20;99.90
20288;DHT22;10303;51.960;8.372;2023-02-21T07:50:44;10.80;99.90
20288;DHT22;10303;51.960;8.372;2023-02-21T07:53:12;10.40;99.90
20288;DHT22;10303;51.960;8.372;2023-02-21T07:55:39;10.50;99.90
20288;DHT22;10303;51.960;8.372;2023-02-21T07:58:05;10.70;99.90
20288;DHT22;10303;51.960;8.372;2023-02-21T08:00:31;11.40;99.90
20288;DHT22;10303;51.960;8.372;2023-02-21T08:02:58;10.80;99.90
20288;DHT22;10303;51.960;8.372;2023-02-21T08:05:24;10.80;99.90
20288;DHT22;10303;51.960;8.372;2023-02-21T08:07:51;11.00;99.90
20288;DHT22;10303;51.960;8.372;2023-02-21T08:10:24;10.80;99.90
20288;DHT22;10303;51.960;8.372;2023-02-21T08:12:51;10.50;99.90
20288;DHT22;10303;51.960;8.372;2023-02-21T08:15:19;10.60;99.90
20288;DHT22;10303;51.960;8.372;2023-02-21T08:17:49;10.80;99.90
20288;DHT22;10303;51.960;8.372;2023-02-21T08:20:16;11.00;99.90
20288;DHT22;10303;51.960;8.372;2023-02-21T08:22:42;10.90;99.90
20288;DHT22;10303;51.960;8.372;2023-02-21T08:25:10;11.10;99.90
20288;DHT22;10303;51.960;8.372;2023-02-21T08:27:41;11.00;99.90
20288;DHT22;10303;51.960;8.372;2023-02-21T08:30:10;10.90;99.90
20288;DHT22;10303;51.960;8.372;2023-02-21T08:32:39;11.00;99.90
20288;DHT22;10303;51.960;8.372;2023-02-21T08:35:05;11.10;99.90
20288;DHT22;10303;51.960;8.372;2023-02-21T08:37:33;11.10;99.90
20288;DHT22;10303;51.960;8.372;2023-02-21T08:40:02;11.20;99.90
20288;DHT22;10303;51.960;8.372;2023-02-21T08:42:28;11.30;99.90
20288;DHT22;10303;51.960;8.372;2023-02-21T08:44:54;11.20;99.90
20288;DHT22;10303;51.960;8.372;2023-02-21T08:47:22;11.40;99.90
20288;DHT22;10303;51.960;8.372;2023-02-21T08:49:48;11.20;99.90
20288;DHT22;10303;51.960;8.372;2023-02-21T08:52:15;11.20;99.90
20288;DHT22;10303;51.960;8.372;2023-02-21T08:54:42;11.30;99.90
20288;DHT22;10303;51.960;8.372;2023-02-21T08:57:09;11.10;99.90
20288;DHT22;10303;51.960;8.372;2023-02-21T08:59:39;11.10;99.90
20288;DHT22;10303;51.960;8.372;2023-02-21T09:02:18;11.20;99.90
20288;DHT22;10303;51.960;8.372;2023-02-21T09:04:45;11.40;99.90
20288;DHT22;10303;51.960;8.372;2023-02-21T09:07:16;11.50;99.90
20288;DHT22;10303;51.960;8.372;2023-02-21T09:09:44;11.30;99.90
20288;DHT22;10303;51.960;8.372;2023-02-21T09:12:10;11.40;99.90
20288;DHT22;10303;51.960;8.372;2023-02-21T09:14:38;11.10;99.90
20288;DHT22;10303;51.960;8.372;2023-02-21T09:17:08;11.10;99.90
20288;DHT22;10303;51.960;8.372;2023-02-21T09:19:36;11.10;99.90
20288;DHT22;10303;51.960;8.372;2023-02-21T09:22:02;11.10;99.90
20288;DHT22;10303;51.960;8.372;2023-02-21T09:24:29;11.30;99.90
20288;DHT22;10303;51.960;8.372;2023-02-21T09:26:57;11.40;99.90
20288;DHT22;10303;51.960;8.372;2023-02-21T09:29:25;10.90;99.90
20288;DHT22;10303;51.960;8.372;2023-02-21T09:31:51;10.90;99.90
20288;DHT22;10303;51.960;8.372;2023-02-21T09:34:18;10.70;99.90
20288;DHT22;10303;51.960;8.372;2023-02-21T09:36:44;10.60;99.90
20288;DHT22;10303;51.960;8.372;2023-02-21T09:39:12;10.60;99.90
20288;DHT22;10303;51.960;8.372;2023-02-21T09:41:38;11.00;99.90
20288;DHT22;10303;51.960;8.372;2023-02-21T09:44:06;10.70;99.90
20288;DHT22;10303;51.960;8.372;2023-02-21T09:46:47;11.20;99.90
20288;DHT22;10303;51.960;8.372;2023-02-21T09:49:23;11.00;99.90
20288;DHT22;10303;51.960;8.372;2023-02-21T09:51:54;10.90;99.90
20288;DHT22;10303;51.960;8.372;2023-02-21T09:57:01;11.00;99.90
20288;DHT22;10303;51.960;8.372;2023-02-21T09:59:29;11.00;99.90
20288;DHT22;10303;51.960;8.372;2023-02-21T10:05:07;11.00;99.90
20288;DHT22;10303;51.960;8.372;2023-02-21T10:10:48;11.20;99.90
20288;DHT22;10303;51.960;8.372;2023-02-21T10:19:41;11.30;99.90
20288;DHT22;10303;51.960;8.372;2023-02-21T10:22:22;11.20;99.90
20288;DHT22;10303;51.960;8.372;2023-02-21T10:24:51;11.10;99.90
20288;DHT22;10303;51.960;8.372;2023-02-21T10:27:20;11.30;99.90
20288;DHT22;10303;51.960;8.372;2023-02-21T10:30:00;11.40;99.90
20288;DHT22;10303;51.960;8.372;2023-02-21T10:32:30;11.50;99.90
20288;DHT22;10303;51.960;8.372;2023-02-21T10:34:57;11.60;99.90
20288;DHT22;10303;51.960;8.372;2023-02-21T10:37:35;11.60;99.90
20288;DHT22;10303;51.960;8.372;2023-02-21T10:48:46;11.50;99.90
20288;DHT22;10303;51.960;8.372;2023-02-21T10:51:33;11.60;99.90
20288;DHT22;10303;51.960;8.372;2023-02-21T10:54:23;11.70;99.90
20288;DHT22;10303;51.960;8.372;2023-02-21T10:56:51;11.80;99.90
20288;DHT22;10303;51.960;8.372;2023-02-21T10:59:30;11.60;99.90
20288;DHT22;10303;51.960;8.372;2023-02-21T11:02:00;11.50;99.90
20288;DHT22;10303;51.960;8.372;2023-02-21T11:04:30;11.50;99.90
20288;DHT22;10303;51.960;8.372;2023-02-21T11:07:05;11.70;99.90
20288;DHT22;10303;51.960;8.372;2023-02-21T11:17:27;11.50;99.90
20288;DHT22;10303;51.960;8.372;2023-02-21T11:19:54;11.60;99.90
20288;DHT22;10303;51.960;8.372;2023-02-21T11:22:34;12.00;99.90
20288;DHT22;10303;51.960;8.372;2023-02-21T11:27:43;11.50;99.90
20288;DHT22;10303;51.960;8.372;2023-02-21T11:30:19;11.30;99.90
20288;DHT22;10303;51.960;8.372;2023-02-21T11:32:54;10.90;99.90
20288;DHT22;10303;51.960;8.372;2023-02-21T11:38:06;11.30;99.90
20288;DHT22;10303;51.960;8.372;2023-02-21T11:40:53;11.20;99.90
20288;DHT22;10303;51.960;8.372;2023-02-21T11:43:31;11.20;99.90
20288;DHT22;10303;51.960;8.372;2023-02-21T11:46:04;11.40;99.90
20288;DHT22;10303;51.960;8.372;2023-02-21T11:49:46;11.20;99.90
20288;DHT22;10303;51.960;8.372;2023-02-21T11:51:48;11.30;99.90
20288;DHT22;10303;51.960;8.372;2023-02-21T11:54:23;11.50;99.90
20288;DHT22;10303;51.960;8.372;2023-02-21T11:57:47;11.60;99.90
20288;DHT22;10303;51.960;8.372;2023-02-21T12:00:17;11.20;99.90
20288;DHT22;10303;51.960;8.372;2023-02-21T12:09:14;11.20;99.90
20288;DHT22;10303;51.960;8.372;2023-02-21T12:19:53;11.00;99.90
20288;DHT22;10303;51.960;8.372;2023-02-21T12:37:28;11.80;99.90
20288;DHT22;10303;51.960;8.372;2023-02-21T12:40:28;12.00;99.90
20288;DHT22;10303;51.960;8.372;2023-02-21T12:45:55;12.10;99.90
20288;DHT22;10303;51.960;8.372;2023-02-21T12:48:32;12.10;99.90
20288;DHT22;10303;51.960;8.372;2023-02-21T12:51:23;12.20;99.90
20288;DHT22;10303;51.960;8.372;2023-02-21T12:54:04;12.10;99.90
20288;DHT22;10303;51.960;8.372;2023-02-21T12:56:35;12.20;99.90
20288;DHT22;10303;51.960;8.372;2023-02-21T12:59:27;12.00;99.90
20288;DHT22;10303;51.960;8.372;2023-02-21T13:02:14;11.90;99.90
20288;DHT22;10303;51.960;8.372;2023-02-21T13:05:04;11.90;99.90
20288;DHT22;10303;51.960;8.372;2023-02-21T13:07:52;12.20;99.90
20288;DHT22;10303;51.960;8.372;2023-02-21T13:10:37;12.10;99.90
20288;DHT22;10303;51.960;8.372;2023-02-21T13:13:23;11.60;99.90
20288;DHT22;10303;51.960;8.372;2023-02-21T13:15:53;11.30;99.90
20288;DHT22;10303;51.960;8.372;2023-02-21T13:18:32;11.20;99.90
20288;DHT22;10303;51.960;8.372;2023-02-21T13:21:24;11.40;99.90
20288;DHT22;10303;51.960;8.372;2023-02-21T13:27:38;11.50;99.90
20288;DHT22;10303;51.960;8.372;2023-02-21T13:30:24;11.70;99.90
20288;DHT22;10303;51.960;8.372;2023-02-21T13:33:02;11.80;99.90
20288;DHT22;10303;51.960;8.372;2023-02-21T13:35:37;11.50;99.90
20288;DHT22;10303;51.960;8.372;2023-02-21T13:38:09;11.60;99.90
20288;DHT22;10303;51.960;8.372;2023-02-21T13:41:02;12.00;99.90
20288;DHT22;10303;51.960;8.372;2023-02-21T13:43:36;11.90;99.90
20288;DHT22;10303;51.960;8.372;2023-02-21T13:57:45;12.10;99.90
20288;DHT22;10303;51.960;8.372;2023-02-21T14:03:01;12.20;99.90
20288;DHT22;10303;51.960;8.372;2023-02-21T14:08:34;12.10;99.90
20288;DHT22;10303;51.960;8.372;2023-02-21T14:19:02;12.20;99.90
20288;DHT22;10303;51.960;8.372;2023-02-21T14:21:43;11.90;99.90
20288;DHT22;10303;51.960;8.372;2023-02-21T14:24:22;11.90;99.90
20288;DHT22;10303;51.960;8.372;2023-02-21T14:29:37;11.50;99.90
20288;DHT22;10303;51.960;8.372;2023-02-21T14:34:50;11.60;99.90
20288;DHT22;10303;51.960;8.372;2023-02-21T14:55:43;11.50;99.90
20288;DHT22;10303;51.960;8.372;2023-02-21T14:58:28;11.40;99.90
20288;DHT22;10303;51.960;8.372;2023-02-21T15:02:06;11.40;99.90
20288;DHT22;10303;51.960;8.372;2023-02-21T15:05:11;11.50;99.90
20288;DHT22;10303;51.960;8.372;2023-02-21T15:07:48;11.50;99.90
20288;DHT22;10303;51.960;8.372;2023-02-21T15:10:30;11.50;99.90
20288;DHT22;10303;51.960;8.372;2023-02-21T15:13:02;11.70;99.90
20288;DHT22;10303;51.960;8.372;2023-02-21T15:15:37;11.80;99.90
20288;DHT22;10303;51.960;8.372;2023-02-21T15:18:08;11.80;99.90
20288;DHT22;10303;51.960;8.372;2023-02-21T15:20:41;12.00;99.90
20288;DHT22;10303;51.960;8.372;2023-02-21T15:25:47;12.10;99.90
20288;DHT22;10303;51.960;8.372;2023-02-21T15:28:22;12.30;99.90
20288;DHT22;10303;51.960;8.372;2023-02-21T15:31:03;12.40;99.90
20288;DHT22;10303;51.960;8.372;2023-02-21T15:33:42;12.30;99.90
20288;DHT22;10303;51.960;8.372;2023-02-21T15:36:17;12.30;99.90
20288;DHT22;10303;51.960;8.372;2023-02-21T15:38:57;12.40;99.90
20288;DHT22;10303;51.960;8.372;2023-02-21T15:42:02;12.40;99.90
20288;DHT22;10303;51.960;8.372;2023-02-21T15:44:38;12.30;99.90
20288;DHT22;10303;51.960;8.372;2023-02-21T15:47:26;12.10;99.90
20288;DHT22;10303;51.960;8.372;2023-02-21T15:52:54;12.00;99.90
20288;DHT22;10303;51.960;8.372;2023-02-21T15:55:28;11.90;99.90
20288;DHT22;10303;51.960;8.372;2023-02-21T15:58:01;11.90;99.90
20288;DHT22;10303;51.960;8.372;2023-02-21T16:01:01;12.00;99.90
20288;DHT22;10303;51.960;8.372;2023-02-21T16:03:51;12.00;99.90
20288;DHT22;10303;51.960;8.372;2023-02-21T16:06:48;12.00;99.90
20288;DHT22;10303;51.960;8.372;2023-02-21T16:09:25;12.10;99.90
20288;DHT22;10303;51.960;8.372;2023-02-21T16:14:56;12.20;99.90
20288;DHT22;10303;51.960;8.372;2023-02-21T16:22:48;12.20;99.90
20288;DHT22;10303;51.960;8.372;2023-02-21T16:25:23;12.40;99.90
20288;DHT22;10303;51.960;8.372;2023-02-21T16:27:56;12.30;99.90
20288;DHT22;10303;51.960;8.372;2023-02-21T16:30:26;12.40;99.90
20288;DHT22;10303;51.960;8.372;2023-02-21T16:32:59;12.40;99.90
20288;DHT22;10303;51.960;8.372;2023-02-21T16:35:28;12.50;99.90
20288;DHT22;10303;51.960;8.372;2023-02-21T16:37:56;12.50;99.90
20288;DHT22;10303;51.960;8.372;2023-02-21T16:40:26;12.70;99.90
20288;DHT22;10303;51.960;8.372;2023-02-21T16:42:55;12.50;99.90
20288;DHT22;10303;51.960;8.372;2023-02-21T16:45:23;12.60;99.90
20288;DHT22;10303;51.960;8.372;2023-02-21T16:47:58;12.60;99.90
20288;DHT22;10303;51.960;8.372;2023-02-21T16:50:38;12.60;99.90
20288;DHT22;10303;51.960;8.372;2023-02-21T16:53:06;12.70;99.90
20288;DHT22;10303;51.960;8.372;2023-02-21T16:55:37;12.70;99.90
20288;DHT22;10303;51.960;8.372;2023-02-21T16:58:10;12.80;99.90
20288;DHT22;10303;51.960;8.372;2023-02-21T17:00:47;12.80;99.90
20288;DHT22;10303;51.960;8.372;2023-02-21T17:03:13;12.80;99.90
20288;DHT22;10303;51.960;8.372;2023-02-21T17:05:40;12.90;99.90
20288;DHT22;10303;51.960;8.372;2023-02-21T17:08:06;12.80;99.90
20288;DHT22;10303;51.960;8.372;2023-02-21T17:10:32;12.90;99.90
20288;DHT22;10303;51.960;8.372;2023-02-21T17:12:59;13.20;99.90
20288;DHT22;10303;51.960;8.372;2023-02-21T17:15:28;12.90;99.90
20288;DHT22;10303;51.960;8.372;2023-02-21T17:17:57;12.90;99.90
20288;DHT22;10303;51.960;8.372;2023-02-21T17:20:24;13.00;99.90
20288;DHT22;10303;51.960;8.372;2023-02-21T17:22:51;13.00;99.90
20288;DHT22;10303;51.960;8.372;2023-02-21T17:25:18;13.00;99.90
20288;DHT22;10303;51.960;8.372;2023-02-21T17:27:45;13.00;99.90
20288;DHT22;10303;51.960;8.372;2023-02-21T17:30:12;13.00;99.90
20288;DHT22;10303;51.960;8.372;2023-02-21T17:32:40;13.00;99.90
20288;DHT22;10303;51.960;8.372;2023-02-21T17:35:06;13.00;99.90
20288;DHT22;10303;51.960;8.372;2023-02-21T17:37:32;13.10;99.90
20288;DHT22;10303;51.960;8.372;2023-02-21T17:39:58;13.10;99.90
20288;DHT22;10303;51.960;8.372;2023-02-21T17:42:25;13.10;99.90
20288;DHT22;10303;51.960;8.372;2023-02-21T17:44:51;13.10;99.90
20288;DHT22;10303;51.960;8.372;2023-02-21T17:47:22;13.10;99.90
20288;DHT22;10303;51.960;8.372;2023-02-21T17:49:49;13.10;99.90
20288;DHT22;10303;51.960;8.372;2023-02-21T17:52:16;13.10;99.90
20288;DHT22;10303;51.960;8.372;2023-02-21T17:54:42;13.10;99.90
20288;DHT22;10303;51.960;8.372;2023-02-21T17:57:09;13.10;99.90
20288;DHT22;10303;51.960;8.372;2023-02-21T17:59:35;13.10;99.90
20288;DHT22;10303;51.960;8.372;2023-02-21T18:02:02;13.10;99.90
20288;DHT22;10303;51.960;8.372;2023-02-21T18:04:28;13.20;99.90
20288;DHT22;10303;51.960;8.372;2023-02-21T18:06:55;13.30;99.90
20288;DHT22;10303;51.960;8.372;2023-02-21T18:09:21;13.20;99.90
20288;DHT22;10303;51.960;8.372;2023-02-21T18:11:51;13.20;99.90
20288;DHT22;10303;51.960;8.372;2023-02-21T18:14:21;13.20;99.90
20288;DHT22;10303;51.960;8.372;2023-02-21T18:16:49;13.20;99.90
20288;DHT22;10303;51.960;8.372;2023-02-21T18:19:15;13.20;99.90
20288;DHT22;10303;51.960;8.372;2023-02-21T18:21:44;13.20;99.90
20288;DHT22;10303;51.960;8.372;2023-02-21T18:24:11;13.10;99.90
20288;DHT22;10303;51.960;8.372;2023-02-21T18:26:38;13.10;99.90
20288;DHT22;10303;51.960;8.372;2023-02-21T18:29:05;13.20;99.90
20288;DHT22;10303;51.960;8.372;2023-02-21T18:31:32;13.20;99.90
20288;DHT22;10303;51.960;8.372;2023-02-21T18:34:03;13.10;99.90
20288;DHT22;10303;51.960;8.372;2023-02-21T18:36:30;13.10;99.90
20288;DHT22;10303;51.960;8.372;2023-02-21T18:38:56;13.20;99.90
20288;DHT22;10303;51.960;8.372;2023-02-21T18:41:22;13.10;99.90
20288;DHT22;10303;51.960;8.372;2023-02-21T18:43:51;13.10;99.90
20288;DHT22;10303;51.960;8.372;2023-02-21T18:46:20;13.10;99.90
20288;DHT22;10303;51.960;8.372;2023-02-21T18:48:48;13.10;99.90
20288;DHT22;10303;51.960;8.372;2023-02-21T18:51:16;13.10;99.90
20288;DHT22;10303;51.960;8.372;2023-02-21T18:53:45;13.20;99.90
20288;DHT22;10303;51.960;8.372;2023-02-21T18:56:14;13.30;99.90
20288;DHT22;10303;51.960;8.372;2023-02-21T18:58:44;13.10;99.90
20288;DHT22;10303;51.960;8.372;2023-02-21T19:01:13;13.10;99.90
20288;DHT22;10303;51.960;8.372;2023-02-21T19:03:40;13.20;99.90
20288;DHT22;10303;51.960;8.372;2023-02-21T19:06:07;13.10;99.90
20288;DHT22;10303;51.960;8.372;2023-02-21T19:08:36;13.10;99.90
20288;DHT22;10303;51.960;8.372;2023-02-21T19:11:02;13.10;99.90